[source: ADDS]
METAR
EDVE 280620Z 34006KT 300V030 CAVOK 11/05 Q1033

TAF EDVE 280620Z 2807/2815 35008KT CAVOK EDDV 280620Z 34006KT 310V020 CAVOK 11/06 Q1033 NOSIG

TAF EDDV 280500Z 2806/2906 32006KT 9999 FEW045 BECMG 2806/2808 34011KT BECMG 2818/2820 34004KT BECMG 2900/2902 4500 BR PROB30 TEMPO 2902/2904 2500 BCFG BECMG 2904/2906 9999 ETHS 280520Z 35008KT 9999 FEW280 09/05 Q1033 BLU+

TAF ETHS 271934Z 2720/2805 01010KT 9999 NSW SCT050 BKN120 ETHC 280520Z 31005 9999 FEW070 10/05 Q1033 BLU+BLU+

TAF COR ETHC 280438Z 2805/2814 34010KT 9999 NSW SCT260 EDVK 280620Z 36012KT 9999 FEW020 11/06 Q1033

TAF
TAF EDVE 280620Z 2807/2815 35008KT CAVOK

TAF EDDV 280500Z 2806/2906 32006KT 9999 FEW045 BECMG 2806/2808 34011KT BECMG 2818/2820 34004KT BECMG 2900/2902 4500 BR PROB30 TEMPO 2902/2904 2500 BCFG BECMG 2904/2906 9999

TAF ETHS 271934Z 2720/2805 01010KT 9999 NSW SCT050 BKN120

TAF COR ETHC 280438Z 2805/2814 34010KT 9999 NSW SCT260

SR / SS: 03:05 / 19:24 UTC (EDVE 2020-05-28)
Mitgliederversammlung als Online-Konferenz am 28.05.2020. +++ Flugbetrieb und Ausbildungsbetrieb unter Auflagen wieder möglich. +++ Gero steht ebenfalls als Fluglehrer zur Verfügung! Vielen Dank an Gero und viel Erfolg beim Ausbilden. +++ Ilya hat die Theorieprüfung bestanden! Herzlichen Glückwunsch und weiterhin viel Erfolg für die restliche Ausbildung! +++ Hallo Felix, herzlich Willkommen bei der FFG und viel Erfolg für deine Pilotenausbildung! +++ Jens verstärkt als neuer Fluglehrer ab sofort unser FFG-Fluglehrer-Team. Glückwunsch und viel Erfolg beim Ausbilden! +++ Wir beglückwünschen Sebastian zur bestandenen PPL-Theorie-Prüfung! Weiterhin viel Erfolg bei der Ausbildung! +++ Stefan hat die praktische Prüfung bestanden! Herzlichen Glückwunsch und Always Happy Landings! +++ Ein weiteres Mitglied hat die Prüfung zum Fluglehrer gemeistert. Glückwunsch Nico und viel Erfolg beim Ausbilden! +++ Florian Hansmann ist ab sofort als Fluglehrer für die FFG tätig! Danke für das Engagement und viel Spaß mit deinen zukünftigen Schülern! +++ Willkommen im Verein Michael und viel Erfolg für deine Ausbildung! +++ Herzlich Willkommen bei der FFG Jens!

wenig -> mittel -> viel

Professionelle Piloten arbeiten mit Checkliste
Ausdrucken und abarbeiten! Vorbereitete Links helfen bei der Beschaffung der notwendigen Informationen.

Weiterlesen ...

Hier gibt es die AIP mit allen erforderlichen Karten die im Abo der FFG liegen zum Download für unsere Mitglieder.

          aerodata150     Radio38